Time;durP1;ratioP1;P1;durP2;ratioP2;P2;SDS_P1;SDS_P2;PMS_P1;PMS_P2;Temp;Humidity;BMP_temperature;BMP_pressure;BME280_temperature;BME280_humidity;BME280_pressure;Samples;Min_cycle;Max_cycle;Signal;HPM_P1;HPM_P2
2021/12/22 00:02:15;;;;;;;2.88;2.35;;;7.60;99.90;;;;;;6208211;23;20189;-69
2021/12/22 00:04:50;;;;;;;2.97;2.45;;;7.50;99.90;;;;;;6196138;23;20653;-70
2021/12/22 00:07:30;;;;;;;2.58;2.38;;;7.50;99.90;;;;;;6211191;23;20188;-65
2021/12/22 00:10:08;;;;;;;3.38;2.30;;;7.50;99.90;;;;;;6213175;23;20206;-69
2021/12/22 00:12:52;;;;;;;2.90;2.50;;;7.70;99.90;;;;;;6207067;23;20239;-70
2021/12/22 00:15:23;;;;;;;2.50;2.30;;;7.60;99.90;;;;;;6210381;23;20201;-69
2021/12/22 00:17:54;;;;;;;2.80;2.55;;;7.40;99.90;;;;;;6207921;23;20264;-69
2021/12/22 00:20:29;;;;;;;2.88;2.58;;;7.50;99.90;;;;;;6209147;23;20538;-69
2021/12/22 00:23:04;;;;;;;3.65;3.00;;;7.40;99.90;;;;;;6206885;23;20709;-69
2021/12/22 00:25:35;;;;;;;2.83;2.53;;;7.40;99.90;;;;;;6210956;23;20186;-68
2021/12/22 00:28:06;;;;;;;3.08;2.78;;;7.50;99.90;;;;;;6208439;23;20185;-68
2021/12/22 00:30:38;;;;;;;2.83;2.63;;;7.40;99.90;;;;;;6209999;23;20193;-69
2021/12/22 00:33:11;;;;;;;2.83;2.53;;;7.40;99.90;;;;;;6207097;23;20186;-69
2021/12/22 00:35:45;;;;;;;2.35;2.15;;;7.40;99.90;;;;;;6202286;23;20256;-69
2021/12/22 00:38:19;;;;;;;3.53;2.33;;;7.40;99.90;;;;;;6210207;23;20291;-69
2021/12/22 00:40:51;;;;;;;2.78;2.53;;;7.50;99.90;;;;;;6199575;23;20528;-69
2021/12/22 00:43:22;;;;;;;4.28;3.45;;;7.50;99.90;;;;;;6206823;23;20178;-69
2021/12/22 00:45:56;;;;;;;3.60;3.30;;;7.50;99.90;;;;;;6211896;23;20257;-69
2021/12/22 00:48:27;;;;;;;3.00;2.70;;;7.40;99.90;;;;;;6203911;23;20185;-70
2021/12/22 00:51:00;;;;;;;5.05;3.85;;;7.40;99.90;;;;;;6205093;23;20193;-68
2021/12/22 00:53:31;;;;;;;3.50;3.20;;;7.40;99.90;;;;;;6205662;23;20190;-70
2021/12/22 00:56:03;;;;;;;4.00;3.13;;;7.40;99.90;;;;;;6202760;23;20212;-69
2021/12/22 00:58:35;;;;;;;4.68;4.25;;;7.40;99.90;;;;;;6202170;23;20213;-71
2021/12/22 01:01:06;;;;;;;3.95;3.10;;;7.40;99.90;;;;;;6206865;23;20239;-71
2021/12/22 01:03:37;;;;;;;3.42;3.13;;;7.50;99.90;;;;;;6208615;23;20190;-72
2021/12/22 01:06:09;;;;;;;4.50;3.45;;;7.60;99.90;;;;;;6211026;23;20217;-69
2021/12/22 01:08:40;;;;;;;3.90;3.60;;;7.50;99.90;;;;;;6194842;23;20192;-70
2021/12/22 01:11:11;;;;;;;4.72;3.97;;;7.60;99.90;;;;;;6207182;23;20202;-71
2021/12/22 01:13:43;;;;;;;4.20;3.80;;;7.60;99.90;;;;;;6195052;23;20200;-69
2021/12/22 01:16:14;;;;;;;5.13;4.55;;;7.50;99.90;;;;;;6210611;23;20212;-68
2021/12/22 01:18:45;;;;;;;5.50;5.00;;;7.60;99.90;;;;;;6195692;23;20193;-66
2021/12/22 01:21:23;;;;;;;5.35;4.85;;;7.60;99.90;;;;;;6206591;23;20189;-67
2021/12/22 01:24:02;;;;;;;6.70;6.00;;;7.50;99.90;;;;;;6208980;23;20204;-68
2021/12/22 01:26:40;;;;;;;7.40;6.60;;;7.50;99.90;;;;;;6211329;23;20209;-66
2021/12/22 01:29:11;;;;;;;7.75;6.95;;;7.60;99.90;;;;;;6208382;23;20192;-66
2021/12/22 01:31:42;;;;;;;6.65;6.05;;;7.50;99.90;;;;;;6202343;23;20188;-67
2021/12/22 01:34:14;;;;;;;7.60;6.80;;;7.50;99.90;;;;;;6204709;23;20384;-68
2021/12/22 01:36:46;;;;;;;7.65;6.88;;;7.50;99.90;;;;;;6208866;23;20300;-67
2021/12/22 01:39:17;;;;;;;7.55;6.85;;;7.60;99.90;;;;;;6196869;23;20655;-67
2021/12/22 01:41:48;;;;;;;8.15;7.35;;;7.60;99.90;;;;;;6204907;23;20654;-67
2021/12/22 01:44:31;;;;;;;9.02;7.00;;;7.50;99.90;;;;;;6206924;23;20260;-67
2021/12/22 01:49:55;;;;;;;8.48;5.88;;;7.40;99.90;;;;;;6207683;23;20190;-67
2021/12/22 01:52:27;;;;;;;9.60;6.00;;;7.30;99.90;;;;;;6209278;23;20185;-66
2021/12/22 01:55:13;;;;;;;9.32;8.48;;;7.20;99.90;;;;;;6210921;23;20182;-67
2021/12/22 01:57:50;;;;;;;8.95;8.00;;;7.20;99.90;;;;;;6212750;23;20208;-67
2021/12/22 02:00:23;;;;;;;8.65;7.30;;;7.10;99.90;;;;;;6210311;23;20185;-68
2021/12/22 02:02:56;;;;;;;7.82;7.10;;;6.90;99.90;;;;;;6208916;23;20192;-71
2021/12/22 02:05:30;;;;;;;8.35;7.45;;;6.90;99.90;;;;;;6206704;23;20285;-72
2021/12/22 02:08:07;;;;;;;8.27;7.10;;;6.80;99.90;;;;;;6211527;23;20659;-75
2021/12/22 02:10:45;;;;;;;8.65;7.03;;;6.70;99.90;;;;;;6208723;23;20201;-75
2021/12/22 02:13:21;;;;;;;8.13;7.25;;;6.70;99.90;;;;;;6206137;23;20182;-74
2021/12/22 02:15:54;;;;;;;8.20;7.40;;;6.60;99.90;;;;;;6209526;23;20197;-74
2021/12/22 02:18:30;;;;;;;9.30;8.45;;;6.60;99.90;;;;;;6207064;23;20209;-72
2021/12/22 02:21:03;;;;;;;8.30;7.57;;;6.60;99.90;;;;;;6207325;23;20537;-74
2021/12/22 02:23:35;;;;;;;9.10;8.25;;;6.50;99.90;;;;;;6209794;23;20209;-73
2021/12/22 02:26:11;;;;;;;11.15;10.00;;;6.40;99.90;;;;;;6210315;23;20197;-73
2021/12/22 02:28:46;;;;;;;10.00;9.00;;;6.40;99.90;;;;;;6195682;23;20679;-71
2021/12/22 02:31:19;;;;;;;10.35;8.73;;;6.30;99.90;;;;;;6208728;23;20500;-71
2021/12/22 02:33:51;;;;;;;8.20;7.40;;;6.30;99.90;;;;;;6209510;23;20389;-71
2021/12/22 02:36:34;;;;;;;9.63;8.45;;;6.30;99.90;;;;;;6205523;23;20208;-72
2021/12/22 02:39:10;;;;;;;8.48;7.63;;;6.40;99.90;;;;;;6208656;23;20499;-75
2021/12/22 02:41:41;;;;;;;7.53;6.82;;;6.40;99.90;;;;;;6205395;23;20189;-71
2021/12/22 02:44:14;;;;;;;7.53;5.80;;;6.30;99.90;;;;;;6210359;23;20186;-70
2021/12/22 02:46:45;;;;;;;6.80;6.18;;;6.30;99.90;;;;;;6192893;23;20207;-70
2021/12/22 02:49:17;;;;;;;7.25;6.47;;;6.20;99.90;;;;;;6208200;23;20499;-71
2021/12/22 02:51:50;;;;;;;7.18;6.40;;;6.20;99.90;;;;;;6207095;23;20181;-70
2021/12/22 02:54:26;;;;;;;8.13;7.38;;;6.20;99.90;;;;;;6204506;23;20265;-70
2021/12/22 02:57:07;;;;;;;7.35;6.55;;;6.20;99.90;;;;;;6211045;23;20255;-70
2021/12/22 02:59:51;;;;;;;7.20;6.57;;;6.20;99.90;;;;;;6206911;23;20182;-71
2021/12/22 03:02:33;;;;;;;8.02;7.25;;;6.20;99.90;;;;;;6208479;23;20188;-68
2021/12/22 03:05:05;;;;;;;7.45;6.85;;;6.20;99.90;;;;;;6205471;23;20185;-70
2021/12/22 03:07:38;;;;;;;8.05;7.35;;;6.20;99.90;;;;;;6209714;23;20483;-69
2021/12/22 03:10:17;;;;;;;7.95;7.15;;;6.20;99.90;;;;;;6209699;23;20201;-68
2021/12/22 03:12:51;;;;;;;7.38;6.68;;;6.20;99.90;;;;;;6209105;23;20185;-71
2021/12/22 03:19:05;;;;;;;9.05;8.15;;;6.20;99.90;;;;;;6210476;23;20497;-73
2021/12/22 03:22:00;;;;;;;9.00;8.07;;;6.20;99.90;;;;;;6210687;23;20208;-76
2021/12/22 03:24:41;;;;;;;8.63;7.68;;;6.20;99.90;;;;;;6208148;23;20217;-73
2021/12/22 03:27:16;;;;;;;7.85;7.10;;;6.20;99.90;;;;;;6210986;23;20240;-73
2021/12/22 03:29:51;;;;;;;10.30;7.80;;;6.20;99.90;;;;;;6210694;23;20204;-73
2021/12/22 03:35:25;;;;;;;8.05;6.85;;;6.10;99.90;;;;;;6207926;23;20197;-76
2021/12/22 03:38:06;;;;;;;7.25;6.35;;;6.00;99.90;;;;;;6209072;23;20514;-74
2021/12/22 03:40:56;;;;;;;7.10;6.40;;;6.00;99.90;;;;;;6210931;23;20563;-74
2021/12/22 03:43:27;;;;;;;7.82;6.82;;;6.00;99.90;;;;;;6210801;23;20323;-72
2021/12/22 03:46:07;;;;;;;7.82;6.85;;;6.00;99.90;;;;;;6210223;23;20193;-72
2021/12/22 03:49:14;;;;;;;7.88;7.07;;;6.10;99.90;;;;;;6199042;23;20205;-75
2021/12/22 04:03:01;;;;;;;8.93;8.00;;;6.00;99.90;;;;;;6191364;23;20272;-69
2021/12/22 04:06:18;;;;;;;10.95;9.18;;;6.10;99.90;;;;;;6209059;23;20186;-72
2021/12/22 04:09:09;;;;;;;10.88;8.90;;;6.20;99.90;;;;;;6199399;23;20724;-73
2021/12/22 04:48:43;;;;;;;10.85;9.27;;;5.90;99.90;;;;;;6208335;23;20200;-71
2021/12/22 04:51:22;;;;;;;10.13;8.88;;;5.90;99.90;;;;;;6211267;23;20188;-71
2021/12/22 04:54:06;;;;;;;12.23;9.10;;;5.90;99.90;;;;;;6206925;23;20200;-72
2021/12/22 04:56:42;;;;;;;10.80;9.60;;;5.90;99.90;;;;;;6207724;23;20189;-70
2021/12/22 04:59:14;;;;;;;10.32;8.80;;;5.90;99.90;;;;;;6204194;23;20196;-72
2021/12/22 05:01:45;;;;;;;10.10;9.13;;;5.90;99.90;;;;;;6209297;23;20618;-71
2021/12/22 05:04:19;;;;;;;10.52;9.40;;;5.90;99.90;;;;;;6202919;23;20193;-71
2021/12/22 05:06:52;;;;;;;10.02;9.02;;;5.90;99.90;;;;;;6209611;23;20605;-73
2021/12/22 05:09:26;;;;;;;13.23;10.98;;;5.80;99.90;;;;;;6208698;23;20188;-72
2021/12/22 05:11:57;;;;;;;16.00;12.23;;;5.90;99.90;;;;;;6209224;23;20232;-72
2021/12/22 05:14:28;;;;;;;11.73;10.52;;;5.90;99.90;;;;;;6210762;23;20186;-73
2021/12/22 05:17:06;;;;;;;12.77;10.50;;;5.80;99.90;;;;;;6209115;23;20269;-74
2021/12/22 05:19:42;;;;;;;11.43;9.60;;;5.80;99.90;;;;;;6195777;23;20661;-73
2021/12/22 05:22:17;;;;;;;11.27;9.15;;;5.80;99.90;;;;;;6210989;23;20321;-73
2021/12/22 05:24:48;;;;;;;12.68;10.32;;;5.60;99.90;;;;;;6206810;23;20182;-71
2021/12/22 05:27:22;;;;;;;12.40;9.98;;;5.60;99.90;;;;;;6210802;23;20188;-71
2021/12/22 05:29:58;;;;;;;14.20;11.68;;;5.60;99.90;;;;;;6208691;23;20182;-71
2021/12/22 05:32:31;;;;;;;12.75;11.10;;;5.60;99.90;;;;;;6211240;23;20470;-70
2021/12/22 05:35:06;;;;;;;11.90;10.77;;;5.60;99.90;;;;;;6205794;23;20217;-71
2021/12/22 05:37:38;;;;;;;13.80;10.55;;;5.70;99.90;;;;;;6206964;23;20296;-71
2021/12/22 05:40:12;;;;;;;14.77;11.15;;;5.60;99.90;;;;;;6206344;23;20227;-71
2021/12/22 05:42:43;;;;;;;13.10;11.55;;;5.70;99.90;;;;;;6207529;23;20537;-71
2021/12/22 05:45:14;;;;;;;10.98;9.60;;;5.80;99.90;;;;;;6208922;23;20188;-70
2021/12/22 05:47:45;;;;;;;10.70;9.70;;;5.70;99.90;;;;;;6197947;23;20180;-70
2021/12/22 05:50:25;;;;;;;14.07;10.35;;;5.80;99.90;;;;;;6209143;23;20216;-71
2021/12/22 05:52:59;;;;;;;10.48;9.35;;;5.80;99.90;;;;;;6209342;23;20182;-69
2021/12/22 05:55:30;;;;;;;10.73;9.65;;;5.80;99.90;;;;;;6209469;23;20264;-69
2021/12/22 05:58:01;;;;;;;11.30;10.02;;;5.70;99.90;;;;;;6207242;23;20281;-72
2021/12/22 06:00:32;;;;;;;12.07;9.85;;;5.80;99.90;;;;;;6205610;23;20182;-73
2021/12/22 06:03:03;;;;;;;14.65;10.73;;;5.90;99.90;;;;;;6207551;23;20186;-73
2021/12/22 06:05:36;;;;;;;12.27;10.50;;;5.90;99.90;;;;;;6208644;23;20668;-72
2021/12/22 06:08:07;;;;;;;11.80;9.93;;;5.90;99.90;;;;;;6208121;23;20182;-73
2021/12/22 06:10:38;;;;;;;11.80;10.55;;;5.90;99.90;;;;;;6209111;23;20464;-72
2021/12/22 06:13:11;;;;;;;15.35;11.50;;;6.00;99.90;;;;;;6206829;23;20261;-71
2021/12/22 06:15:42;;;;;;;11.52;9.90;;;6.00;99.90;;;;;;6206646;23;20189;-72
2021/12/22 06:18:13;;;;;;;12.85;10.50;;;5.90;99.90;;;;;;6204044;23;20202;-71
2021/12/22 06:20:46;;;;;;;10.80;9.65;;;6.00;99.90;;;;;;6197677;23;20304;-72
2021/12/22 06:23:17;;;;;;;11.13;9.18;;;6.00;99.90;;;;;;6209840;23;20189;-71
2021/12/22 06:25:47;;;;;;;13.00;11.30;;;6.00;99.90;;;;;;6206914;23;20204;-72
2021/12/22 06:28:18;;;;;;;12.70;11.35;;;6.00;99.90;;;;;;6208262;23;20189;-73
2021/12/22 06:30:49;;;;;;;15.30;11.82;;;6.00;99.90;;;;;;6208936;23;20629;-71
2021/12/22 06:33:20;;;;;;;12.13;10.90;;;6.00;99.90;;;;;;6206755;23;20186;-70
2021/12/22 06:35:53;;;;;;;12.15;9.95;;;6.00;99.90;;;;;;6211351;23;20181;-69
2021/12/22 06:43:06;;;;;;;11.60;10.45;;;6.00;99.90;;;;;;6165364;23;20192;-74
2021/12/22 06:46:11;;;;;;;11.75;10.07;;;6.00;99.90;;;;;;6199442;23;20303;-74
2021/12/22 07:06:05;;;;;;;12.45;9.75;;;6.10;99.90;;;;;;6113422;23;20367;-79
2021/12/22 07:42:49;;;;;;;11.43;10.32;;;5.50;99.90;;;;;;6103649;23;20278;-74
2021/12/22 07:45:28;;;;;;;12.68;11.00;;;5.40;99.90;;;;;;6180066;23;20187;-68
2021/12/22 07:47:59;;;;;;;11.45;10.25;;;5.40;99.90;;;;;;6176297;23;20225;-68
2021/12/22 07:50:30;;;;;;;11.43;10.23;;;5.40;99.90;;;;;;6179452;23;20604;-68
2021/12/22 07:53:01;;;;;;;15.13;11.15;;;5.50;99.90;;;;;;6178169;23;20183;-68
2021/12/22 07:55:33;;;;;;;13.60;11.55;;;5.50;99.90;;;;;;6179192;23;20182;-67
2021/12/22 07:58:09;;;;;;;15.40;10.65;;;5.50;99.90;;;;;;6177270;23;20202;-69
2021/12/22 08:00:40;;;;;;;12.18;10.75;;;5.50;99.90;;;;;;6179008;23;20183;-70
2021/12/22 08:03:12;;;;;;;12.35;9.75;;;5.50;99.90;;;;;;6177426;23;20183;-71
2021/12/22 08:06:02;;;;;;;12.52;10.68;;;5.40;99.90;;;;;;6179114;23;20186;-69
2021/12/22 08:08:33;;;;;;;12.30;10.18;;;5.40;99.90;;;;;;6178741;23;20692;-70
2021/12/22 08:32:12;;;;;;;12.73;11.20;;;5.30;99.90;;;;;;6179120;23;20202;-74
2021/12/22 08:34:54;;;;;;;12.68;11.35;;;5.30;99.90;;;;;;6178288;23;20182;-72
2021/12/22 11:11:43;;;;;;;2.80;2.20;;;6.40;99.90;;;;;;6130029;22;20329;-78
2021/12/22 11:14:24;;;;;;;3.60;2.20;;;6.50;99.90;;;;;;6177997;23;20193;-68
2021/12/22 11:17:03;;;;;;;2.33;2.13;;;6.50;99.90;;;;;;6178600;23;20208;-70
2021/12/22 16:30:42;;;;;;;3.08;2.00;;;8.40;99.90;;;;;;6124140;22;20245;-73
2021/12/22 16:33:27;;;;;;;2.20;2.00;;;8.40;99.90;;;;;;6174617;23;20185;-73
2021/12/22 16:36:16;;;;;;;4.15;1.90;;;8.40;99.90;;;;;;6182356;23;20214;-75
2021/12/22 16:38:49;;;;;;;2.33;2.13;;;8.40;99.90;;;;;;6180294;23;20274;-68
2021/12/22 16:41:21;;;;;;;2.20;2.00;;;8.50;99.90;;;;;;6178351;23;20277;-73
2021/12/22 16:44:08;;;;;;;1.77;1.67;;;8.40;99.90;;;;;;6179437;23;20270;-72
2021/12/22 16:46:41;;;;;;;5.70;2.00;;;8.50;99.90;;;;;;6180181;23;20192;-70
2021/12/22 16:49:13;;;;;;;2.22;1.88;;;8.50;99.90;;;;;;6179429;23;20182;-71
2021/12/22 16:51:44;;;;;;;2.08;1.98;;;8.60;99.90;;;;;;6179384;23;20647;-69
2021/12/22 16:54:17;;;;;;;2.00;1.90;;;8.70;99.90;;;;;;6177653;23;20189;-73
2021/12/22 16:57:01;;;;;;;2.30;2.10;;;8.70;99.90;;;;;;6173516;23;20197;-70
2021/12/22 16:59:32;;;;;;;4.43;2.25;;;8.80;99.90;;;;;;6175653;23;20233;-69
2021/12/22 17:02:05;;;;;;;2.50;2.30;;;8.80;99.90;;;;;;6177416;23;20650;-69
2021/12/22 17:04:36;;;;;;;2.80;2.33;;;8.80;99.90;;;;;;6176656;23;20217;-69
2021/12/22 17:07:07;;;;;;;2.17;2.08;;;8.90;99.90;;;;;;6173139;23;20182;-68
2021/12/22 17:09:38;;;;;;;2.15;2.05;;;8.90;99.90;;;;;;6176201;23;20493;-70
2021/12/22 17:12:10;;;;;;;3.25;2.70;;;9.00;99.90;;;;;;6179399;23;20182;-70
2021/12/22 17:14:41;;;;;;;3.00;2.10;;;9.00;99.90;;;;;;6179166;23;20183;-71
2021/12/22 17:17:18;;;;;;;2.92;2.20;;;9.10;99.90;;;;;;6182257;23;20270;-69
2021/12/22 17:19:49;;;;;;;2.55;2.05;;;9.00;99.90;;;;;;6178334;23;20202;-70
2021/12/22 17:22:19;;;;;;;1.60;1.50;;;9.10;99.90;;;;;;6181858;23;20182;-69
2021/12/22 17:24:50;;;;;;;2.42;2.17;;;9.00;99.90;;;;;;6175037;23;20193;-70
2021/12/22 17:27:21;;;;;;;2.15;1.67;;;9.10;99.90;;;;;;6180271;23;20273;-70
2021/12/22 17:29:52;;;;;;;1.90;1.80;;;9.10;99.90;;;;;;6178443;23;20224;-71
2021/12/22 17:39:55;;;;;;;3.75;2.40;;;9.30;99.90;;;;;;6177651;23;20202;-71
2021/12/22 17:42:31;;;;;;;3.00;1.80;;;9.30;99.90;;;;;;6170426;23;20182;-71
2021/12/22 17:45:02;;;;;;;3.03;2.83;;;9.30;99.90;;;;;;6181213;23;20194;-70
2021/12/22 17:47:33;;;;;;;3.05;2.75;;;9.40;99.90;;;;;;6179352;23;20187;-69
2021/12/22 17:50:06;;;;;;;3.15;2.85;;;9.30;99.90;;;;;;6179665;23;20178;-70
2021/12/22 17:52:37;;;;;;;3.00;2.80;;;9.40;99.90;;;;;;6178851;23;20210;-69
2021/12/22 17:55:13;;;;;;;3.13;2.92;;;9.40;99.90;;;;;;6180182;23;20182;-69
2021/12/22 17:57:47;;;;;;;3.00;2.78;;;9.30;99.90;;;;;;6181794;23;20182;-68
2021/12/22 18:00:24;;;;;;;3.90;2.63;;;9.40;99.90;;;;;;6176878;23;20670;-68
2021/12/22 18:02:55;;;;;;;5.72;2.60;;;9.40;99.90;;;;;;6182794;23;20429;-68
2021/12/22 18:05:29;;;;;;;2.95;2.75;;;9.40;99.90;;;;;;6178041;23;20486;-69
2021/12/22 18:08:01;;;;;;;3.70;2.75;;;9.40;99.90;;;;;;6178926;23;20185;-69
2021/12/22 18:10:35;;;;;;;2.63;2.30;;;9.40;99.90;;;;;;6180640;23;20634;-69
2021/12/22 18:13:07;;;;;;;3.00;2.80;;;9.50;99.90;;;;;;6178884;23;20190;-68
2021/12/22 18:15:38;;;;;;;3.17;2.87;;;9.50;99.90;;;;;;6180800;23;20513;-68
2021/12/22 18:18:09;;;;;;;2.90;2.60;;;9.60;99.90;;;;;;6178761;23;20417;-68
2021/12/22 18:20:40;;;;;;;3.03;2.72;;;9.60;99.90;;;;;;6176573;23;20202;-69
2021/12/22 18:23:13;;;;;;;2.83;2.63;;;9.60;99.90;;;;;;6178962;23;20261;-69
2021/12/22 18:25:45;;;;;;;7.00;6.30;;;9.60;99.90;;;;;;6180425;23;20425;-69
2021/12/22 18:28:16;;;;;;;12.73;8.77;;;9.70;99.90;;;;;;6178418;23;20443;-69
2021/12/22 18:30:47;;;;;;;11.57;9.67;;;9.60;99.90;;;;;;6179115;23;20440;-69
2021/12/22 18:33:18;;;;;;;12.83;9.87;;;9.60;99.90;;;;;;6179211;23;20573;-69
2021/12/22 18:35:59;;;;;;;11.00;9.30;;;9.40;99.90;;;;;;6167536;23;20409;-70
2021/12/22 18:38:35;;;;;;;11.20;9.63;;;9.30;99.90;;;;;;6178846;23;20208;-69
2021/12/22 18:41:20;;;;;;;13.13;9.33;;;9.40;99.90;;;;;;6181272;23;20328;-70
2021/12/22 18:43:51;;;;;;;12.40;9.57;;;9.30;99.90;;;;;;6175247;23;20466;-72
2021/12/22 18:46:28;;;;;;;19.43;11.17;;;9.30;99.90;;;;;;6178682;23;20489;-70
2021/12/22 18:48:59;;;;;;;10.63;9.23;;;9.20;99.90;;;;;;6176858;23;20425;-71
2021/12/22 18:51:31;;;;;;;13.23;9.30;;;9.10;99.90;;;;;;6180109;23;20434;-71
2021/12/22 18:54:02;;;;;;;11.80;9.53;;;9.10;99.90;;;;;;6178070;23;20509;-71
2021/12/22 18:56:36;;;;;;;10.57;9.48;;;9.20;99.90;;;;;;6180470;23;20418;-70
2021/12/22 18:59:08;;;;;;;10.40;8.77;;;9.30;99.90;;;;;;6178401;23;20186;-70
2021/12/22 19:01:39;;;;;;;11.95;9.50;;;9.40;99.90;;;;;;6178409;23;20495;-70
2021/12/22 19:04:13;;;;;;;10.13;8.93;;;9.50;99.90;;;;;;6174763;23;20196;-69
2021/12/22 19:06:45;;;;;;;9.80;7.88;;;9.50;99.90;;;;;;6180650;23;20497;-69
2021/12/22 19:09:16;;;;;;;11.77;7.90;;;9.60;99.90;;;;;;6176321;23;20189;-70
2021/12/22 19:11:48;;;;;;;10.87;7.83;;;9.60;99.90;;;;;;6176971;23;20893;-70
2021/12/22 19:14:20;;;;;;;9.70;8.70;;;9.60;99.90;;;;;;6175433;23;20890;-73
2021/12/22 19:16:52;;;;;;;8.55;7.68;;;9.60;99.90;;;;;;6176616;23;20417;-71
2021/12/22 19:19:22;;;;;;;24.02;11.73;;;9.60;99.90;;;;;;6177222;23;20588;-70
2021/12/22 19:21:53;;;;;;;613.00;110.70;;;9.70;99.90;;;;;;6180673;23;20638;-69
2021/12/22 19:24:24;;;;;;;10.50;9.27;;;9.80;99.90;;;;;;6175316;23;20204;-70
2021/12/22 19:26:57;;;;;;;11.25;9.63;;;9.70;99.90;;;;;;6180665;23;20188;-69
2021/12/22 19:29:27;;;;;;;9.30;8.40;;;9.70;99.90;;;;;;6177528;23;20190;-70
2021/12/22 19:31:59;;;;;;;8.50;7.30;;;9.60;99.90;;;;;;6178744;23;20657;-69
2021/12/22 19:34:29;;;;;;;10.80;9.03;;;9.60;99.90;;;;;;6175578;23;20427;-69
2021/12/22 19:37:00;;;;;;;10.77;8.10;;;9.60;99.90;;;;;;6178358;23;20416;-69
2021/12/22 19:39:31;;;;;;;12.70;9.60;;;9.60;99.90;;;;;;6179999;23;20413;-70
2021/12/22 19:42:04;;;;;;;12.00;8.53;;;9.60;99.90;;;;;;6175787;23;20455;-72
2021/12/22 19:44:37;;;;;;;10.53;9.03;;;9.60;99.90;;;;;;6177887;23;20739;-71
2021/12/22 19:47:14;;;;;;;9.50;8.50;;;9.60;99.90;;;;;;6180166;23;20497;-74
2021/12/22 19:52:54;;;;;;;10.80;8.20;;;9.60;99.90;;;;;;6180419;23;20263;-72
2021/12/22 19:55:25;;;;;;;13.27;8.52;;;9.50;99.90;;;;;;6178169;23;20269;-71
2021/12/22 19:58:09;;;;;;;9.37;8.40;;;9.50;99.90;;;;;;6178016;23;20186;-73
2021/12/22 20:03:52;;;;;;;11.00;8.07;;;9.50;99.90;;;;;;6176393;23;20813;-69
2021/12/22 20:06:24;;;;;;;10.65;9.35;;;9.60;99.90;;;;;;6177660;23;20417;-72
2021/12/22 20:13:04;;;;;;;8.52;7.57;;;9.60;99.90;;;;;;6178819;23;20880;-72
2021/12/22 20:15:35;;;;;;;10.55;7.72;;;9.70;99.90;;;;;;6182114;23;20213;-73
2021/12/22 20:18:06;;;;;;;9.10;8.02;;;9.60;99.90;;;;;;6180653;23;20210;-73
2021/12/22 20:20:38;;;;;;;9.10;7.82;;;9.60;99.90;;;;;;6179799;23;20210;-71
2021/12/22 20:23:09;;;;;;;8.13;7.30;;;9.70;99.90;;;;;;6180029;23;20187;-69
2021/12/22 20:25:48;;;;;;;10.30;8.10;;;9.60;99.90;;;;;;6181229;23;20182;-76
2021/12/22 20:28:26;;;;;;;8.23;7.37;;;9.60;99.90;;;;;;6178930;23;20422;-66
2021/12/22 20:30:57;;;;;;;288.40;58.05;;;9.50;99.90;;;;;;6179619;23;20950;-65
2021/12/22 20:33:28;;;;;;;7.73;6.93;;;9.70;99.90;;;;;;6178255;23;20197;-67
2021/12/22 20:35:59;;;;;;;7.30;6.30;;;9.70;99.90;;;;;;6182188;23;20529;-64
2021/12/22 20:38:30;;;;;;;7.73;6.93;;;9.70;99.90;;;;;;6179357;23;20704;-65
2021/12/22 20:41:01;;;;;;;6.57;5.80;;;9.50;99.90;;;;;;6182294;23;20476;-64
2021/12/22 20:43:33;;;;;;;6.40;5.80;;;9.40;99.90;;;;;;6179789;23;20183;-72
2021/12/22 20:46:04;;;;;;;6.63;6.05;;;9.30;99.90;;;;;;6180396;23;20421;-71
2021/12/22 20:48:35;;;;;;;6.70;6.03;;;9.30;99.90;;;;;;6180732;23;20323;-74
2021/12/22 20:51:06;;;;;;;8.02;7.22;;;9.40;99.90;;;;;;6180559;23;20523;-73
2021/12/22 20:53:37;;;;;;;8.13;7.03;;;9.50;99.90;;;;;;6182124;23;20638;-73
2021/12/22 20:56:09;;;;;;;6.05;5.45;;;9.60;99.90;;;;;;6180314;23;20197;-73
2021/12/22 20:58:41;;;;;;;6.33;5.70;;;9.70;99.90;;;;;;6182254;23;20193;-73
2021/12/22 21:01:12;;;;;;;6.50;5.90;;;9.80;99.90;;;;;;6181277;23;20448;-73
2021/12/22 21:03:43;;;;;;;6.20;5.20;;;9.90;99.90;;;;;;6179145;23;20417;-73
2021/12/22 21:06:14;;;;;;;5.17;4.53;;;9.90;99.90;;;;;;6180167;23;20406;-72
2021/12/22 21:08:45;;;;;;;6.20;5.60;;;10.10;99.90;;;;;;6180265;23;20406;-77
2021/12/22 21:11:17;;;;;;;8.05;5.93;;;10.10;99.90;;;;;;6179019;23;20413;-70
2021/12/22 21:13:50;;;;;;;6.95;6.25;;;10.00;99.90;;;;;;6178888;23;20182;-69
2021/12/22 21:16:21;;;;;;;8.52;7.25;;;10.00;99.90;;;;;;6181800;23;20183;-69
2021/12/22 21:18:51;;;;;;;5.43;4.65;;;9.90;99.90;;;;;;6178101;23;20190;-69
2021/12/22 21:21:25;;;;;;;4.53;4.10;;;9.90;99.90;;;;;;6181064;23;20199;-69
2021/12/22 21:23:56;;;;;;;2.80;2.60;;;10.00;99.90;;;;;;6179530;23;20242;-69
2021/12/22 21:26:27;;;;;;;2.70;2.28;;;10.00;99.90;;;;;;6179672;23;20528;-71
2021/12/22 21:29:00;;;;;;;2.70;2.50;;;10.00;99.90;;;;;;6181329;23;20183;-69
2021/12/22 21:31:31;;;;;;;2.80;2.60;;;9.90;99.90;;;;;;6179119;23;20384;-69
2021/12/22 21:34:02;;;;;;;2.53;2.20;;;9.90;99.90;;;;;;6178327;23;20921;-71
2021/12/22 21:36:35;;;;;;;3.60;2.93;;;9.90;99.90;;;;;;6179723;23;20432;-72
2021/12/22 21:39:06;;;;;;;2.67;2.23;;;9.90;99.90;;;;;;6180956;23;20429;-71
2021/12/22 21:41:37;;;;;;;2.50;2.30;;;9.90;99.90;;;;;;6177390;23;21443;-69
2021/12/22 21:44:10;;;;;;;2.50;2.30;;;10.00;99.90;;;;;;6179240;23;20440;-75
2021/12/22 21:46:41;;;;;;;5.00;2.63;;;9.90;99.90;;;;;;6182456;23;20520;-72
2021/12/22 21:49:14;;;;;;;3.08;2.78;;;10.00;99.90;;;;;;6178455;23;20186;-76
2021/12/22 21:51:45;;;;;;;4.00;2.92;;;9.90;99.90;;;;;;6179598;23;20178;-71
2021/12/22 21:54:16;;;;;;;3.00;2.80;;;9.90;99.90;;;;;;6178854;23;20189;-72
2021/12/22 21:56:47;;;;;;;3.58;3.28;;;9.90;99.90;;;;;;6181996;23;20402;-77
2021/12/22 21:59:23;;;;;;;3.30;3.00;;;9.90;99.90;;;;;;6179113;23;20193;-74
2021/12/22 22:01:54;;;;;;;3.92;3.53;;;9.90;99.90;;;;;;6176549;23;20209;-70
2021/12/22 22:04:26;;;;;;;3.73;3.37;;;9.90;99.90;;;;;;6177977;23;20265;-71
2021/12/22 22:06:57;;;;;;;5.13;3.88;;;9.90;99.90;;;;;;6181660;23;20501;-69
2021/12/22 22:09:27;;;;;;;3.95;3.55;;;9.90;99.90;;;;;;6181128;23;20205;-70
2021/12/22 22:11:58;;;;;;;4.05;3.65;;;9.90;99.90;;;;;;6179876;23;20183;-70
2021/12/22 22:14:31;;;;;;;3.90;3.60;;;9.80;99.90;;;;;;6176502;23;20182;-70
2021/12/22 22:17:03;;;;;;;5.78;4.18;;;9.90;99.90;;;;;;6177839;23;20501;-71
2021/12/22 22:19:34;;;;;;;4.82;4.10;;;9.90;99.90;;;;;;6180826;23;20273;-71
2021/12/22 22:22:05;;;;;;;4.40;4.00;;;9.90;99.90;;;;;;6181663;23;20228;-71
2021/12/22 22:24:36;;;;;;;4.55;4.10;;;9.90;99.90;;;;;;6181461;23;20189;-70
2021/12/22 22:27:07;;;;;;;4.50;4.00;;;9.90;99.90;;;;;;6181971;23;20535;-70
2021/12/22 22:29:40;;;;;;;4.70;4.20;;;9.90;99.90;;;;;;6181684;23;20444;-74
2021/12/22 22:32:11;;;;;;;4.13;3.72;;;9.90;99.90;;;;;;6181200;23;20182;-72
2021/12/22 22:34:42;;;;;;;4.57;4.18;;;9.80;99.90;;;;;;6176231;23;20197;-77
2021/12/22 22:37:14;;;;;;;4.47;4.07;;;9.80;99.90;;;;;;6181381;23;20182;-74
2021/12/22 22:39:45;;;;;;;3.38;3.05;;;9.70;99.90;;;;;;6178781;23;20238;-76
2021/12/22 22:42:16;;;;;;;2.92;2.55;;;9.70;99.90;;;;;;6178904;23;20512;-73
2021/12/22 22:44:48;;;;;;;3.13;2.80;;;9.70;99.90;;;;;;6178651;23;20186;-76
2021/12/22 22:47:20;;;;;;;2.97;2.78;;;9.70;99.90;;;;;;6180725;23;20262;-74
2021/12/22 22:49:56;;;;;;;2.70;2.17;;;9.60;99.90;;;;;;6172499;23;20210;-73
2021/12/22 22:52:30;;;;;;;2.00;1.80;;;9.60;99.90;;;;;;6176044;23;20261;-71
2021/12/22 22:55:01;;;;;;;2.78;2.58;;;9.50;99.90;;;;;;6180466;23;20183;-73
2021/12/22 22:57:38;;;;;;;2.20;1.97;;;9.50;99.90;;;;;;6179901;23;20217;-74
2021/12/22 23:00:30;;;;;;;2.25;2.05;;;9.50;99.90;;;;;;6178073;23;20406;-73
2021/12/22 23:03:06;;;;;;;2.42;1.88;;;9.60;99.90;;;;;;6179752;23;20205;-73
2021/12/22 23:05:37;;;;;;;1.95;1.70;;;9.50;99.90;;;;;;6180043;23;20198;-74
2021/12/22 23:08:08;;;;;;;2.28;2.05;;;9.50;99.90;;;;;;6180758;23;20288;-73
2021/12/22 23:10:42;;;;;;;2.13;1.77;;;9.50;99.90;;;;;;6179402;23;20183;-72
2021/12/22 23:13:18;;;;;;;1.85;1.75;;;9.40;99.90;;;;;;6176757;23;20286;-76
2021/12/22 23:15:50;;;;;;;2.00;1.85;;;9.50;99.90;;;;;;6178996;23;20571;-75
2021/12/22 23:18:25;;;;;;;2.33;2.13;;;9.50;99.90;;;;;;6179025;23;20273;-75
2021/12/22 23:20:57;;;;;;;3.05;2.50;;;9.40;99.90;;;;;;6178835;23;20182;-72
2021/12/22 23:23:28;;;;;;;2.45;2.25;;;9.40;99.90;;;;;;6177752;23;20203;-76
2021/12/22 23:25:59;;;;;;;2.20;2.00;;;9.30;99.90;;;;;;6178937;23;20633;-72
2021/12/22 23:28:30;;;;;;;3.22;2.38;;;9.20;99.90;;;;;;6179914;23;20266;-73
2021/12/22 23:31:03;;;;;;;2.75;2.55;;;9.20;99.90;;;;;;6178578;23;20204;-74
2021/12/22 23:33:35;;;;;;;5.45;3.75;;;9.20;99.90;;;;;;6177444;23;20916;-71
2021/12/22 23:36:14;;;;;;;3.70;3.40;;;9.20;99.90;;;;;;6180455;23;20607;-72
2021/12/22 23:42:17;;;;;;;3.08;2.83;;;9.10;99.90;;;;;;6152917;23;20182;-75
2021/12/22 23:50:27;;;;;;;3.40;3.10;;;9.00;99.90;;;;;;6176556;23;20190;-73
2021/12/22 23:52:58;;;;;;;4.20;3.80;;;9.00;99.90;;;;;;6182390;23;20186;-87
2021/12/22 23:55:29;;;;;;;3.42;3.13;;;9.00;99.90;;;;;;6177867;23;20188;-78